sensor_id;sensor_type;location;lat;lon;timestamp;temperature;humidity
2212;DHT22;48849;48.758;9.158;2022-07-21T00:01:15;23.90;99.90
2212;DHT22;48849;48.758;9.158;2022-07-21T00:03:42;23.90;99.90
2212;DHT22;48849;48.758;9.158;2022-07-21T00:06:09;23.80;99.90
2212;DHT22;48849;48.758;9.158;2022-07-21T00:08:35;23.90;99.90
2212;DHT22;48849;48.758;9.158;2022-07-21T00:11:03;23.90;99.90
2212;DHT22;48849;48.758;9.158;2022-07-21T00:13:30;23.90;99.90
2212;DHT22;48849;48.758;9.158;2022-07-21T00:15:58;23.80;99.90
2212;DHT22;48849;48.758;9.158;2022-07-21T00:18:25;23.90;99.90
2212;DHT22;48849;48.758;9.158;2022-07-21T00:20:53;23.80;99.90
2212;DHT22;48849;48.758;9.158;2022-07-21T00:23:20;23.80;99.90
2212;DHT22;48849;48.758;9.158;2022-07-21T00:25:47;23.80;99.90
2212;DHT22;48849;48.758;9.158;2022-07-21T00:28:14;23.80;99.90
2212;DHT22;48849;48.758;9.158;2022-07-21T00:30:41;23.80;99.90
2212;DHT22;48849;48.758;9.158;2022-07-21T00:33:09;23.80;99.90
2212;DHT22;48849;48.758;9.158;2022-07-21T00:35:35;23.80;99.90
2212;DHT22;48849;48.758;9.158;2022-07-21T00:38:03;23.80;99.90
2212;DHT22;48849;48.758;9.158;2022-07-21T00:40:29;23.80;99.90
2212;DHT22;48849;48.758;9.158;2022-07-21T00:42:57;23.80;99.90
2212;DHT22;48849;48.758;9.158;2022-07-21T00:45:25;23.80;99.90
2212;DHT22;48849;48.758;9.158;2022-07-21T00:47:52;23.30;99.90
2212;DHT22;48849;48.758;9.158;2022-07-21T00:50:21;23.70;99.90
2212;DHT22;48849;48.758;9.158;2022-07-21T00:52:48;23.70;99.90
2212;DHT22;48849;48.758;9.158;2022-07-21T00:55:17;23.70;99.90
2212;DHT22;48849;48.758;9.158;2022-07-21T00:57:44;23.70;99.90
2212;DHT22;48849;48.758;9.158;2022-07-21T01:00:15;23.70;99.90
2212;DHT22;48849;48.758;9.158;2022-07-21T01:02:43;23.70;99.90
2212;DHT22;48849;48.758;9.158;2022-07-21T01:05:11;23.70;99.90
2212;DHT22;48849;48.758;9.158;2022-07-21T01:07:43;23.70;99.90
2212;DHT22;48849;48.758;9.158;2022-07-21T01:10:12;23.70;99.90
2212;DHT22;48849;48.758;9.158;2022-07-21T01:12:39;23.60;99.90
2212;DHT22;48849;48.758;9.158;2022-07-21T01:15:06;23.60;99.90
2212;DHT22;48849;48.758;9.158;2022-07-21T01:17:34;23.70;99.90
2212;DHT22;48849;48.758;9.158;2022-07-21T01:20:03;23.70;99.90
2212;DHT22;48849;48.758;9.158;2022-07-21T01:22:33;23.70;99.90
2212;DHT22;48849;48.758;9.158;2022-07-21T01:25:00;23.60;99.90
2212;DHT22;48849;48.758;9.158;2022-07-21T01:27:27;23.60;99.90
2212;DHT22;48849;48.758;9.158;2022-07-21T01:29:54;23.60;99.90
2212;DHT22;48849;48.758;9.158;2022-07-21T01:32:21;23.60;99.90
2212;DHT22;48849;48.758;9.158;2022-07-21T01:34:48;23.60;99.90
2212;DHT22;48849;48.758;9.158;2022-07-21T01:37:15;23.60;99.90
2212;DHT22;48849;48.758;9.158;2022-07-21T01:39:48;23.60;99.90
2212;DHT22;48849;48.758;9.158;2022-07-21T01:42:32;23.60;99.90
2212;DHT22;48849;48.758;9.158;2022-07-21T01:44:59;23.60;99.90
2212;DHT22;48849;48.758;9.158;2022-07-21T01:47:25;23.60;99.90
2212;DHT22;48849;48.758;9.158;2022-07-21T01:49:52;23.60;99.90
2212;DHT22;48849;48.758;9.158;2022-07-21T01:52:19;23.60;99.90
2212;DHT22;48849;48.758;9.158;2022-07-21T01:54:45;23.50;99.90
2212;DHT22;48849;48.758;9.158;2022-07-21T01:57:13;23.50;99.90
2212;DHT22;48849;48.758;9.158;2022-07-21T01:59:40;23.50;99.90
2212;DHT22;48849;48.758;9.158;2022-07-21T02:02:07;23.50;99.90
2212;DHT22;48849;48.758;9.158;2022-07-21T02:04:34;23.50;99.90
2212;DHT22;48849;48.758;9.158;2022-07-21T02:07:00;23.50;99.90
2212;DHT22;48849;48.758;9.158;2022-07-21T02:09:28;23.50;99.90
2212;DHT22;48849;48.758;9.158;2022-07-21T02:11:55;23.50;99.90
2212;DHT22;48849;48.758;9.158;2022-07-21T02:14:23;23.50;99.90
2212;DHT22;48849;48.758;9.158;2022-07-21T02:16:49;23.50;99.90
2212;DHT22;48849;48.758;9.158;2022-07-21T02:19:16;23.50;99.90
2212;DHT22;48849;48.758;9.158;2022-07-21T02:21:43;23.50;99.90
2212;DHT22;48849;48.758;9.158;2022-07-21T02:24:09;23.50;99.90
2212;DHT22;48849;48.758;9.158;2022-07-21T02:26:36;23.40;99.90
2212;DHT22;48849;48.758;9.158;2022-07-21T02:29:03;23.40;99.90
2212;DHT22;48849;48.758;9.158;2022-07-21T02:31:31;23.40;99.90
2212;DHT22;48849;48.758;9.158;2022-07-21T02:33:58;23.40;99.90
2212;DHT22;48849;48.758;9.158;2022-07-21T02:36:24;23.40;99.90
2212;DHT22;48849;48.758;9.158;2022-07-21T02:38:51;23.40;99.90
2212;DHT22;48849;48.758;9.158;2022-07-21T02:41:18;23.40;99.90
2212;DHT22;48849;48.758;9.158;2022-07-21T02:43:44;23.40;99.90
2212;DHT22;48849;48.758;9.158;2022-07-21T02:46:11;23.30;99.90
2212;DHT22;48849;48.758;9.158;2022-07-21T02:48:39;23.40;99.90
2212;DHT22;48849;48.758;9.158;2022-07-21T02:51:06;23.30;99.90
2212;DHT22;48849;48.758;9.158;2022-07-21T02:53:32;23.30;99.90
2212;DHT22;48849;48.758;9.158;2022-07-21T02:55:59;23.30;99.90
2212;DHT22;48849;48.758;9.158;2022-07-21T02:58:27;23.30;99.90
2212;DHT22;48849;48.758;9.158;2022-07-21T03:00:55;23.30;99.90
2212;DHT22;48849;48.758;9.158;2022-07-21T03:03:24;23.30;99.90
2212;DHT22;48849;48.758;9.158;2022-07-21T03:05:53;23.30;99.90
2212;DHT22;48849;48.758;9.158;2022-07-21T03:08:20;23.30;99.90
2212;DHT22;48849;48.758;9.158;2022-07-21T03:10:48;23.20;99.90
2212;DHT22;48849;48.758;9.158;2022-07-21T03:13:15;23.20;99.90
2212;DHT22;48849;48.758;9.158;2022-07-21T03:15:42;23.20;99.90
2212;DHT22;48849;48.758;9.158;2022-07-21T03:18:08;23.20;99.90
2212;DHT22;48849;48.758;9.158;2022-07-21T03:20:37;23.20;99.90
2212;DHT22;48849;48.758;9.158;2022-07-21T03:23:06;23.20;99.90
2212;DHT22;48849;48.758;9.158;2022-07-21T03:25:33;23.20;99.90
2212;DHT22;48849;48.758;9.158;2022-07-21T03:27:59;23.20;99.90
2212;DHT22;48849;48.758;9.158;2022-07-21T03:30:26;23.20;99.90
2212;DHT22;48849;48.758;9.158;2022-07-21T03:32:54;23.20;99.90
2212;DHT22;48849;48.758;9.158;2022-07-21T03:35:21;23.20;99.90
2212;DHT22;48849;48.758;9.158;2022-07-21T03:37:50;23.10;99.90
2212;DHT22;48849;48.758;9.158;2022-07-21T03:40:20;23.10;99.90
2212;DHT22;48849;48.758;9.158;2022-07-21T03:42:48;23.10;99.90
2212;DHT22;48849;48.758;9.158;2022-07-21T03:45:15;23.10;99.90
2212;DHT22;48849;48.758;9.158;2022-07-21T03:47:42;23.10;99.90
2212;DHT22;48849;48.758;9.158;2022-07-21T03:50:09;23.10;99.90
2212;DHT22;48849;48.758;9.158;2022-07-21T03:52:38;23.10;99.90
2212;DHT22;48849;48.758;9.158;2022-07-21T03:55:05;23.10;99.90
2212;DHT22;48849;48.758;9.158;2022-07-21T03:57:38;23.10;99.90
2212;DHT22;48849;48.758;9.158;2022-07-21T04:00:08;23.10;99.90
2212;DHT22;48849;48.758;9.158;2022-07-21T04:02:35;23.10;99.90
2212;DHT22;48849;48.758;9.158;2022-07-21T04:05:02;23.10;99.90
2212;DHT22;48849;48.758;9.158;2022-07-21T04:07:29;23.20;99.90
2212;DHT22;48849;48.758;9.158;2022-07-21T04:09:56;23.10;99.90
2212;DHT22;48849;48.758;9.158;2022-07-21T04:12:25;23.20;99.90
2212;DHT22;48849;48.758;9.158;2022-07-21T04:14:53;23.20;99.90
2212;DHT22;48849;48.758;9.158;2022-07-21T04:17:20;23.20;99.90
2212;DHT22;48849;48.758;9.158;2022-07-21T04:19:47;23.20;99.90
2212;DHT22;48849;48.758;9.158;2022-07-21T04:22:14;23.20;99.90
2212;DHT22;48849;48.758;9.158;2022-07-21T04:24:41;23.20;99.90
2212;DHT22;48849;48.758;9.158;2022-07-21T04:27:08;23.20;99.90
2212;DHT22;48849;48.758;9.158;2022-07-21T04:29:35;23.20;99.90
2212;DHT22;48849;48.758;9.158;2022-07-21T04:32:04;23.20;99.90
2212;DHT22;48849;48.758;9.158;2022-07-21T04:34:31;23.10;99.90
2212;DHT22;48849;48.758;9.158;2022-07-21T04:36:57;23.10;99.90
2212;DHT22;48849;48.758;9.158;2022-07-21T04:39:24;23.10;99.90
2212;DHT22;48849;48.758;9.158;2022-07-21T04:41:51;23.10;99.90
2212;DHT22;48849;48.758;9.158;2022-07-21T04:44:17;23.10;99.90
2212;DHT22;48849;48.758;9.158;2022-07-21T04:46:44;23.10;99.90
2212;DHT22;48849;48.758;9.158;2022-07-21T04:49:12;23.00;99.90
2212;DHT22;48849;48.758;9.158;2022-07-21T04:51:39;23.00;99.90
2212;DHT22;48849;48.758;9.158;2022-07-21T04:54:06;23.00;99.90
2212;DHT22;48849;48.758;9.158;2022-07-21T04:56:33;23.00;99.90
2212;DHT22;48849;48.758;9.158;2022-07-21T04:59:00;23.00;99.90
2212;DHT22;48849;48.758;9.158;2022-07-21T05:01:27;23.10;99.90
2212;DHT22;48849;48.758;9.158;2022-07-21T05:03:53;23.10;99.90
2212;DHT22;48849;48.758;9.158;2022-07-21T05:06:21;23.10;99.90
2212;DHT22;48849;48.758;9.158;2022-07-21T05:08:48;23.10;99.90
2212;DHT22;48849;48.758;9.158;2022-07-21T05:11:15;23.10;99.90
2212;DHT22;48849;48.758;9.158;2022-07-21T05:13:41;23.10;99.90
2212;DHT22;48849;48.758;9.158;2022-07-21T05:16:08;23.10;99.90
2212;DHT22;48849;48.758;9.158;2022-07-21T05:18:35;23.10;99.90
2212;DHT22;48849;48.758;9.158;2022-07-21T05:21:02;23.10;99.90
2212;DHT22;48849;48.758;9.158;2022-07-21T05:23:30;23.00;99.90
2212;DHT22;48849;48.758;9.158;2022-07-21T05:25:57;23.00;99.90
2212;DHT22;48849;48.758;9.158;2022-07-21T05:28:23;23.00;99.90
2212;DHT22;48849;48.758;9.158;2022-07-21T05:30:50;23.00;99.90
2212;DHT22;48849;48.758;9.158;2022-07-21T05:33:17;23.00;99.90
2212;DHT22;48849;48.758;9.158;2022-07-21T05:35:44;23.00;99.90
2212;DHT22;48849;48.758;9.158;2022-07-21T05:38:10;23.00;99.90
2212;DHT22;48849;48.758;9.158;2022-07-21T05:40:38;23.00;99.90
2212;DHT22;48849;48.758;9.158;2022-07-21T05:43:05;23.00;99.90
2212;DHT22;48849;48.758;9.158;2022-07-21T05:45:32;23.00;99.90
2212;DHT22;48849;48.758;9.158;2022-07-21T05:47:59;23.00;99.90
2212;DHT22;48849;48.758;9.158;2022-07-21T05:50:25;23.10;99.90
2212;DHT22;48849;48.758;9.158;2022-07-21T05:52:52;23.10;99.90
2212;DHT22;48849;48.758;9.158;2022-07-21T05:55:19;23.10;99.90
2212;DHT22;48849;48.758;9.158;2022-07-21T05:57:47;23.10;99.90
2212;DHT22;48849;48.758;9.158;2022-07-21T06:00:14;23.10;99.90
2212;DHT22;48849;48.758;9.158;2022-07-21T06:02:42;23.10;99.90
2212;DHT22;48849;48.758;9.158;2022-07-21T06:05:09;23.10;99.90
2212;DHT22;48849;48.758;9.158;2022-07-21T06:07:36;23.10;99.90
2212;DHT22;48849;48.758;9.158;2022-07-21T06:10:03;23.10;99.90
2212;DHT22;48849;48.758;9.158;2022-07-21T06:12:30;23.10;99.90
2212;DHT22;48849;48.758;9.158;2022-07-21T06:14:58;23.10;99.90
2212;DHT22;48849;48.758;9.158;2022-07-21T06:17:25;23.10;99.90
2212;DHT22;48849;48.758;9.158;2022-07-21T06:19:51;23.10;99.90
2212;DHT22;48849;48.758;9.158;2022-07-21T06:22:18;23.10;99.90
2212;DHT22;48849;48.758;9.158;2022-07-21T06:24:45;23.10;99.90
2212;DHT22;48849;48.758;9.158;2022-07-21T06:27:11;23.10;99.90
2212;DHT22;48849;48.758;9.158;2022-07-21T06:29:38;23.10;99.90
2212;DHT22;48849;48.758;9.158;2022-07-21T06:32:06;23.10;99.90
2212;DHT22;48849;48.758;9.158;2022-07-21T06:34:33;23.10;99.90
2212;DHT22;48849;48.758;9.158;2022-07-21T06:37:00;23.10;99.90
2212;DHT22;48849;48.758;9.158;2022-07-21T06:39:26;23.10;99.90
2212;DHT22;48849;48.758;9.158;2022-07-21T06:41:53;23.10;99.90
2212;DHT22;48849;48.758;9.158;2022-07-21T06:44:19;23.10;99.90
2212;DHT22;48849;48.758;9.158;2022-07-21T06:46:46;23.10;99.90
2212;DHT22;48849;48.758;9.158;2022-07-21T06:49:14;23.10;99.90
2212;DHT22;48849;48.758;9.158;2022-07-21T06:51:41;23.10;99.90
2212;DHT22;48849;48.758;9.158;2022-07-21T06:54:08;23.10;99.90
2212;DHT22;48849;48.758;9.158;2022-07-21T06:56:34;23.10;99.90
2212;DHT22;48849;48.758;9.158;2022-07-21T06:59:01;23.10;99.90
2212;DHT22;48849;48.758;9.158;2022-07-21T07:01:28;23.20;99.90
2212;DHT22;48849;48.758;9.158;2022-07-21T07:03:54;23.20;99.90
2212;DHT22;48849;48.758;9.158;2022-07-21T07:06:22;23.20;99.90
2212;DHT22;48849;48.758;9.158;2022-07-21T07:08:49;23.20;99.90
2212;DHT22;48849;48.758;9.158;2022-07-21T07:11:16;23.20;99.90
2212;DHT22;48849;48.758;9.158;2022-07-21T07:13:43;23.20;99.90
2212;DHT22;48849;48.758;9.158;2022-07-21T07:16:10;23.20;99.90
2212;DHT22;48849;48.758;9.158;2022-07-21T07:18:36;23.20;99.90
2212;DHT22;48849;48.758;9.158;2022-07-21T07:21:03;23.30;99.90
2212;DHT22;48849;48.758;9.158;2022-07-21T07:23:31;23.30;99.90
2212;DHT22;48849;48.758;9.158;2022-07-21T07:25:58;23.30;99.90
2212;DHT22;48849;48.758;9.158;2022-07-21T07:28:25;23.30;99.90
2212;DHT22;48849;48.758;9.158;2022-07-21T07:30:52;23.30;99.90
2212;DHT22;48849;48.758;9.158;2022-07-21T07:33:18;23.40;99.90
2212;DHT22;48849;48.758;9.158;2022-07-21T07:35:45;23.40;99.90
2212;DHT22;48849;48.758;9.158;2022-07-21T07:38:12;23.40;99.90
2212;DHT22;48849;48.758;9.158;2022-07-21T07:40:41;23.40;99.90
2212;DHT22;48849;48.758;9.158;2022-07-21T07:43:08;23.50;99.90
2212;DHT22;48849;48.758;9.158;2022-07-21T07:45:35;23.50;99.90
2212;DHT22;48849;48.758;9.158;2022-07-21T07:48:01;23.50;99.90
2212;DHT22;48849;48.758;9.158;2022-07-21T07:50:28;23.50;99.90
2212;DHT22;48849;48.758;9.158;2022-07-21T07:52:55;23.60;99.90
2212;DHT22;48849;48.758;9.158;2022-07-21T07:55:22;23.60;99.90
2212;DHT22;48849;48.758;9.158;2022-07-21T07:57:50;23.70;99.90
2212;DHT22;48849;48.758;9.158;2022-07-21T08:00:18;23.60;99.90
2212;DHT22;48849;48.758;9.158;2022-07-21T08:02:45;23.60;99.90
2212;DHT22;48849;48.758;9.158;2022-07-21T08:05:12;23.70;99.90
2212;DHT22;48849;48.758;9.158;2022-07-21T08:07:39;23.70;99.90
2212;DHT22;48849;48.758;9.158;2022-07-21T08:10:07;23.80;99.90
2212;DHT22;48849;48.758;9.158;2022-07-21T08:12:34;23.80;99.90
2212;DHT22;48849;48.758;9.158;2022-07-21T08:15:03;23.80;99.90
2212;DHT22;48849;48.758;9.158;2022-07-21T08:17:30;23.80;99.90
2212;DHT22;48849;48.758;9.158;2022-07-21T08:19:57;23.90;99.90
2212;DHT22;48849;48.758;9.158;2022-07-21T08:22:24;23.90;99.90
2212;DHT22;48849;48.758;9.158;2022-07-21T08:24:50;23.90;99.90
2212;DHT22;48849;48.758;9.158;2022-07-21T08:27:17;23.90;99.90
2212;DHT22;48849;48.758;9.158;2022-07-21T08:29:44;23.80;99.90
2212;DHT22;48849;48.758;9.158;2022-07-21T08:32:13;23.80;99.90
2212;DHT22;48849;48.758;9.158;2022-07-21T08:34:39;23.90;99.90
2212;DHT22;48849;48.758;9.158;2022-07-21T08:37:06;23.90;99.90
2212;DHT22;48849;48.758;9.158;2022-07-21T08:39:33;24.00;99.90
2212;DHT22;48849;48.758;9.158;2022-07-21T08:42:00;24.00;99.90
2212;DHT22;48849;48.758;9.158;2022-07-21T08:44:27;24.00;99.90
2212;DHT22;48849;48.758;9.158;2022-07-21T08:46:54;24.00;99.90
2212;DHT22;48849;48.758;9.158;2022-07-21T08:49:22;24.00;99.90
2212;DHT22;48849;48.758;9.158;2022-07-21T08:51:50;24.00;99.90
2212;DHT22;48849;48.758;9.158;2022-07-21T08:54:17;24.00;99.90
2212;DHT22;48849;48.758;9.158;2022-07-21T08:56:45;24.10;99.90
2212;DHT22;48849;48.758;9.158;2022-07-21T08:59:12;24.10;99.90
2212;DHT22;48849;48.758;9.158;2022-07-21T09:01:39;24.10;99.90
2212;DHT22;48849;48.758;9.158;2022-07-21T09:04:27;24.20;99.90
2212;DHT22;48849;48.758;9.158;2022-07-21T09:06:56;24.20;99.90
2212;DHT22;48849;48.758;9.158;2022-07-21T09:09:23;24.30;99.90
2212;DHT22;48849;48.758;9.158;2022-07-21T09:11:51;24.30;99.90
2212;DHT22;48849;48.758;9.158;2022-07-21T09:14:20;24.30;99.90
2212;DHT22;48849;48.758;9.158;2022-07-21T09:16:49;24.40;99.90
2212;DHT22;48849;48.758;9.158;2022-07-21T09:19:18;24.40;99.90
2212;DHT22;48849;48.758;9.158;2022-07-21T09:21:47;24.50;99.90
2212;DHT22;48849;48.758;9.158;2022-07-21T09:24:20;24.50;99.90
2212;DHT22;48849;48.758;9.158;2022-07-21T09:27:06;24.60;99.90
2212;DHT22;48849;48.758;9.158;2022-07-21T09:29:45;24.60;99.90
2212;DHT22;48849;48.758;9.158;2022-07-21T09:32:23;24.60;99.90
2212;DHT22;48849;48.758;9.158;2022-07-21T09:34:52;24.60;99.90
2212;DHT22;48849;48.758;9.158;2022-07-21T09:37:22;24.70;99.90
2212;DHT22;48849;48.758;9.158;2022-07-21T09:39:51;24.70;99.90
2212;DHT22;48849;48.758;9.158;2022-07-21T09:42:20;24.80;99.90
2212;DHT22;48849;48.758;9.158;2022-07-21T09:44:49;24.80;99.90
2212;DHT22;48849;48.758;9.158;2022-07-21T09:47:17;24.80;99.90
2212;DHT22;48849;48.758;9.158;2022-07-21T09:49:44;24.90;99.90
2212;DHT22;48849;48.758;9.158;2022-07-21T09:52:21;24.90;99.90
2212;DHT22;48849;48.758;9.158;2022-07-21T09:54:48;24.90;99.90
2212;DHT22;48849;48.758;9.158;2022-07-21T09:57:16;25.00;99.90
2212;DHT22;48849;48.758;9.158;2022-07-21T09:59:43;25.00;99.90
2212;DHT22;48849;48.758;9.158;2022-07-21T10:02:16;25.10;99.90
2212;DHT22;48849;48.758;9.158;2022-07-21T10:04:45;25.10;99.90
2212;DHT22;48849;48.758;9.158;2022-07-21T10:07:13;25.20;99.90
2212;DHT22;48849;48.758;9.158;2022-07-21T10:09:43;25.20;99.90
2212;DHT22;48849;48.758;9.158;2022-07-21T10:12:10;25.20;99.90
2212;DHT22;48849;48.758;9.158;2022-07-21T10:14:37;25.30;99.90
2212;DHT22;48849;48.758;9.158;2022-07-21T10:17:04;25.30;99.90
2212;DHT22;48849;48.758;9.158;2022-07-21T10:19:37;25.30;99.90
2212;DHT22;48849;48.758;9.158;2022-07-21T10:22:17;25.40;99.90
2212;DHT22;48849;48.758;9.158;2022-07-21T10:24:49;25.50;99.90
2212;DHT22;48849;48.758;9.158;2022-07-21T10:27:16;25.50;99.90
2212;DHT22;48849;48.758;9.158;2022-07-21T10:29:55;25.60;99.90
2212;DHT22;48849;48.758;9.158;2022-07-21T10:32:24;25.60;99.90
2212;DHT22;48849;48.758;9.158;2022-07-21T10:34:53;25.60;99.90
2212;DHT22;48849;48.758;9.158;2022-07-21T10:37:44;25.70;99.90
2212;DHT22;48849;48.758;9.158;2022-07-21T10:40:35;25.60;99.90
2212;DHT22;48849;48.758;9.158;2022-07-21T10:43:40;25.70;99.90
2212;DHT22;48849;48.758;9.158;2022-07-21T10:46:33;25.70;99.90
2212;DHT22;48849;48.758;9.158;2022-07-21T10:49:02;25.70;99.90
2212;DHT22;48849;48.758;9.158;2022-07-21T10:51:32;25.80;99.90
2212;DHT22;48849;48.758;9.158;2022-07-21T10:54:22;25.80;99.90
2212;DHT22;48849;48.758;9.158;2022-07-21T10:57:29;25.90;99.90
2212;DHT22;48849;48.758;9.158;2022-07-21T11:00:15;26.00;99.90
2212;DHT22;48849;48.758;9.158;2022-07-21T11:02:43;26.00;99.90
2212;DHT22;48849;48.758;9.158;2022-07-21T11:05:10;26.10;99.90
2212;DHT22;48849;48.758;9.158;2022-07-21T11:08:10;26.10;99.90
2212;DHT22;48849;48.758;9.158;2022-07-21T11:10:39;26.10;99.90
2212;DHT22;48849;48.758;9.158;2022-07-21T11:13:08;26.10;99.90
2212;DHT22;48849;48.758;9.158;2022-07-21T11:15:53;26.20;99.90
2212;DHT22;48849;48.758;9.158;2022-07-21T11:18:22;26.30;99.90
2212;DHT22;48849;48.758;9.158;2022-07-21T11:21:02;26.40;99.90
2212;DHT22;48849;48.758;9.158;2022-07-21T11:23:37;26.50;99.90
2212;DHT22;48849;48.758;9.158;2022-07-21T11:26:05;26.60;99.90
2212;DHT22;48849;48.758;9.158;2022-07-21T11:28:33;26.70;99.90
2212;DHT22;48849;48.758;9.158;2022-07-21T11:31:12;26.80;99.90
2212;DHT22;48849;48.758;9.158;2022-07-21T11:33:39;26.90;99.90
2212;DHT22;48849;48.758;9.158;2022-07-21T11:36:07;26.90;99.90
2212;DHT22;48849;48.758;9.158;2022-07-21T11:38:34;27.00;99.90
2212;DHT22;48849;48.758;9.158;2022-07-21T11:41:16;27.00;99.90
2212;DHT22;48849;48.758;9.158;2022-07-21T11:43:46;27.20;99.90
2212;DHT22;48849;48.758;9.158;2022-07-21T11:46:13;27.30;99.90
2212;DHT22;48849;48.758;9.158;2022-07-21T11:48:40;27.30;99.90
2212;DHT22;48849;48.758;9.158;2022-07-21T11:51:07;27.30;99.90
2212;DHT22;48849;48.758;9.158;2022-07-21T11:53:35;27.30;99.90
2212;DHT22;48849;48.758;9.158;2022-07-21T11:56:02;27.30;99.90
2212;DHT22;48849;48.758;9.158;2022-07-21T11:58:38;27.30;99.90
2212;DHT22;48849;48.758;9.158;2022-07-21T12:01:07;27.20;99.90
2212;DHT22;48849;48.758;9.158;2022-07-21T12:03:34;27.10;99.90
2212;DHT22;48849;48.758;9.158;2022-07-21T12:06:12;27.00;99.90
2212;DHT22;48849;48.758;9.158;2022-07-21T12:08:39;27.00;99.90
2212;DHT22;48849;48.758;9.158;2022-07-21T12:11:07;27.00;99.90
2212;DHT22;48849;48.758;9.158;2022-07-21T12:13:52;26.90;99.90
2212;DHT22;48849;48.758;9.158;2022-07-21T12:16:20;27.00;99.90
2212;DHT22;48849;48.758;9.158;2022-07-21T12:18:47;27.20;99.90
2212;DHT22;48849;48.758;9.158;2022-07-21T12:21:13;27.30;99.90
2212;DHT22;48849;48.758;9.158;2022-07-21T12:23:41;27.50;99.90
2212;DHT22;48849;48.758;9.158;2022-07-21T12:26:19;27.60;99.90
2212;DHT22;48849;48.758;9.158;2022-07-21T12:28:49;27.60;99.90
2212;DHT22;48849;48.758;9.158;2022-07-21T12:31:20;27.50;99.90
2212;DHT22;48849;48.758;9.158;2022-07-21T12:33:47;27.50;99.90
2212;DHT22;48849;48.758;9.158;2022-07-21T12:36:14;27.50;99.90
2212;DHT22;48849;48.758;9.158;2022-07-21T12:38:41;27.60;99.90
2212;DHT22;48849;48.758;9.158;2022-07-21T12:41:13;27.50;99.90
2212;DHT22;48849;48.758;9.158;2022-07-21T12:43:40;27.50;99.90
2212;DHT22;48849;48.758;9.158;2022-07-21T12:46:11;27.40;99.90
2212;DHT22;48849;48.758;9.158;2022-07-21T12:48:39;27.40;99.90
2212;DHT22;48849;48.758;9.158;2022-07-21T12:51:10;27.50;99.90
2212;DHT22;48849;48.758;9.158;2022-07-21T12:53:42;27.60;99.90
2212;DHT22;48849;48.758;9.158;2022-07-21T12:56:11;27.80;99.90
2212;DHT22;48849;48.758;9.158;2022-07-21T12:58:38;28.00;99.90
2212;DHT22;48849;48.758;9.158;2022-07-21T13:01:05;28.00;99.90
2212;DHT22;48849;48.758;9.158;2022-07-21T13:03:32;28.20;99.90
2212;DHT22;48849;48.758;9.158;2022-07-21T13:06:03;28.50;99.90
2212;DHT22;48849;48.758;9.158;2022-07-21T13:08:31;28.90;99.90
2212;DHT22;48849;48.758;9.158;2022-07-21T13:10:58;29.30;99.90
2212;DHT22;48849;48.758;9.158;2022-07-21T13:13:26;29.40;99.90
2212;DHT22;48849;48.758;9.158;2022-07-21T13:15:53;29.40;99.90
2212;DHT22;48849;48.758;9.158;2022-07-21T13:18:20;29.40;99.90
2212;DHT22;48849;48.758;9.158;2022-07-21T13:20:48;29.30;99.90
2212;DHT22;48849;48.758;9.158;2022-07-21T13:23:17;29.10;99.90
2212;DHT22;48849;48.758;9.158;2022-07-21T13:25:43;29.00;99.90
2212;DHT22;48849;48.758;9.158;2022-07-21T13:28:10;29.00;99.90
2212;DHT22;48849;48.758;9.158;2022-07-21T13:30:37;29.00;99.90
2212;DHT22;48849;48.758;9.158;2022-07-21T13:33:03;29.10;99.90
2212;DHT22;48849;48.758;9.158;2022-07-21T13:35:30;29.10;99.90
2212;DHT22;48849;48.758;9.158;2022-07-21T13:37:58;29.20;99.90
2212;DHT22;48849;48.758;9.158;2022-07-21T13:40:27;29.20;99.90
2212;DHT22;48849;48.758;9.158;2022-07-21T13:42:54;29.30;99.90
2212;DHT22;48849;48.758;9.158;2022-07-21T13:45:21;29.40;99.90
2212;DHT22;48849;48.758;9.158;2022-07-21T13:47:48;29.50;99.90
2212;DHT22;48849;48.758;9.158;2022-07-21T13:50:15;29.60;99.90
2212;DHT22;48849;48.758;9.158;2022-07-21T13:52:41;29.70;99.90
2212;DHT22;48849;48.758;9.158;2022-07-21T13:55:08;29.80;99.90
2212;DHT22;48849;48.758;9.158;2022-07-21T13:57:37;30.00;99.90
2212;DHT22;48849;48.758;9.158;2022-07-21T14:00:04;30.30;99.90
2212;DHT22;48849;48.758;9.158;2022-07-21T14:02:32;31.00;99.90
2212;DHT22;48849;48.758;9.158;2022-07-21T14:04:58;31.60;99.90
2212;DHT22;48849;48.758;9.158;2022-07-21T14:07:25;31.60;99.90
2212;DHT22;48849;48.758;9.158;2022-07-21T14:09:52;31.80;99.90
2212;DHT22;48849;48.758;9.158;2022-07-21T14:12:19;31.90;99.90
2212;DHT22;48849;48.758;9.158;2022-07-21T14:14:47;31.50;99.90
2212;DHT22;48849;48.758;9.158;2022-07-21T14:17:14;31.10;99.90
2212;DHT22;48849;48.758;9.158;2022-07-21T14:19:42;30.70;99.90
2212;DHT22;48849;48.758;9.158;2022-07-21T14:22:09;30.30;99.90
2212;DHT22;48849;48.758;9.158;2022-07-21T14:24:36;30.00;99.90
2212;DHT22;48849;48.758;9.158;2022-07-21T14:27:20;29.70;99.90
2212;DHT22;48849;48.758;9.158;2022-07-21T14:29:48;29.50;99.90
2212;DHT22;48849;48.758;9.158;2022-07-21T14:32:17;29.30;99.90
2212;DHT22;48849;48.758;9.158;2022-07-21T14:34:47;29.10;99.90
2212;DHT22;48849;48.758;9.158;2022-07-21T14:37:14;28.90;99.90
2212;DHT22;48849;48.758;9.158;2022-07-21T14:39:40;28.70;99.90
2212;DHT22;48849;48.758;9.158;2022-07-21T14:42:07;28.60;99.90
2212;DHT22;48849;48.758;9.158;2022-07-21T14:44:34;28.50;99.90
2212;DHT22;48849;48.758;9.158;2022-07-21T14:47:03;28.40;99.90
2212;DHT22;48849;48.758;9.158;2022-07-21T14:49:30;28.30;99.90
2212;DHT22;48849;48.758;9.158;2022-07-21T14:51:56;28.20;99.90
2212;DHT22;48849;48.758;9.158;2022-07-21T14:54:23;28.10;99.90
2212;DHT22;48849;48.758;9.158;2022-07-21T14:56:50;28.00;99.90
2212;DHT22;48849;48.758;9.158;2022-07-21T14:59:16;28.00;99.90
2212;DHT22;48849;48.758;9.158;2022-07-21T15:01:43;28.00;99.90
2212;DHT22;48849;48.758;9.158;2022-07-21T15:04:11;27.90;99.90
2212;DHT22;48849;48.758;9.158;2022-07-21T15:06:38;27.80;99.90
2212;DHT22;48849;48.758;9.158;2022-07-21T15:09:05;27.80;99.90
2212;DHT22;48849;48.758;9.158;2022-07-21T15:11:32;27.70;99.90
2212;DHT22;48849;48.758;9.158;2022-07-21T15:13:59;27.70;99.90
2212;DHT22;48849;48.758;9.158;2022-07-21T15:16:26;27.60;99.90
2212;DHT22;48849;48.758;9.158;2022-07-21T15:18:52;27.60;99.90
2212;DHT22;48849;48.758;9.158;2022-07-21T15:21:21;27.60;99.90
2212;DHT22;48849;48.758;9.158;2022-07-21T15:23:48;27.60;99.90
2212;DHT22;48849;48.758;9.158;2022-07-21T15:26:15;27.60;99.90
2212;DHT22;48849;48.758;9.158;2022-07-21T15:28:42;27.60;99.90
2212;DHT22;48849;48.758;9.158;2022-07-21T15:31:08;27.50;99.90
2212;DHT22;48849;48.758;9.158;2022-07-21T15:33:35;27.50;99.90
2212;DHT22;48849;48.758;9.158;2022-07-21T15:36:02;27.50;99.90
2212;DHT22;48849;48.758;9.158;2022-07-21T15:38:30;27.50;99.90
2212;DHT22;48849;48.758;9.158;2022-07-21T15:40:57;27.50;99.90
2212;DHT22;48849;48.758;9.158;2022-07-21T15:43:24;27.40;99.90
2212;DHT22;48849;48.758;9.158;2022-07-21T15:45:51;27.40;99.90
2212;DHT22;48849;48.758;9.158;2022-07-21T15:48:17;27.40;99.90
2212;DHT22;48849;48.758;9.158;2022-07-21T15:50:44;27.30;99.90
2212;DHT22;48849;48.758;9.158;2022-07-21T15:53:11;27.30;99.90